aviador You're here:

KBBG Decoded Metar

in _UNIDENTIFIED
Report Time2018-05-25 08:55:00
UTC Time2018-05-25 09:19:16
Flight Rules vfr VFR
WindCalm
Visibility9999 m
Phenomena:N/A
Clouds:N/A
CeilingNone
Temp18°C (ISA +6)
Dew Point18°C (100% RH)
QNH1017 hPa
Density Alt2,103 ft
Elevation1,302 ft
Report Wrong Elevation
Raw Report
KBBG 250855Z AUTO 00000KT 10SM CLR 18/18 A3002 RMK AO2=

Extra information for KBBG:More info

Metar Taf Metar & Taf Last 4 Metars F.Rules Stats Wind Profile Meteogram Temp Stats Metar ALERT Operation Metar Decoded Social comments